Time;durP1;ratioP1;P1;durP2;ratioP2;P2;SDS_P1;SDS_P2;PMS_P1;PMS_P2;Temp;Humidity;BMP_temperature;BMP_pressure;BME280_temperature;BME280_humidity;BME280_pressure;Samples;Min_cycle;Max_cycle;Signal;HPM_P1;HPM_P2
2021/05/09 00:02:12;;;;;;;2.90;1.70;;;14.50;99.90;;;;;;5094775;28;20412;-68
2021/05/09 00:04:38;;;;;;;5.83;2.03;;;14.50;99.90;;;;;;5094856;28;20199;-68
2021/05/09 00:07:03;;;;;;;5.07;1.47;;;14.40;99.90;;;;;;5093797;28;20506;-67
2021/05/09 00:09:29;;;;;;;2.60;1.57;;;14.40;99.90;;;;;;5094799;28;20180;-68
2021/05/09 00:11:54;;;;;;;1.70;1.23;;;14.30;99.90;;;;;;5094541;28;20566;-68
2021/05/09 00:14:22;;;;;;;2.80;1.20;;;14.20;99.90;;;;;;5094511;28;20244;-68
2021/05/09 00:16:47;;;;;;;1.87;1.30;;;14.20;99.90;;;;;;5094420;28;20545;-68
2021/05/09 00:19:13;;;;;;;3.00;1.70;;;14.20;99.90;;;;;;5094364;28;20409;-68
2021/05/09 00:21:38;;;;;;;3.47;1.70;;;14.20;99.90;;;;;;5094630;28;20170;-68
2021/05/09 00:24:05;;;;;;;2.90;1.40;;;14.20;99.90;;;;;;5094328;28;20187;-68
2021/05/09 00:26:32;;;;;;;1.67;1.37;;;14.10;99.90;;;;;;5094263;28;20688;-68
2021/05/09 00:28:57;;;;;;;2.03;1.43;;;14.10;99.90;;;;;;5094489;28;20441;-68
2021/05/09 00:31:23;;;;;;;3.30;1.63;;;14.10;99.90;;;;;;5093520;28;20902;-68
2021/05/09 00:33:48;;;;;;;2.23;2.03;;;14.00;99.90;;;;;;5094246;28;20327;-68
2021/05/09 00:36:14;;;;;;;4.37;1.47;;;14.00;99.90;;;;;;5094088;28;20177;-68
2021/05/09 00:38:39;;;;;;;2.27;1.70;;;14.00;99.90;;;;;;5094273;28;20177;-68
2021/05/09 00:41:05;;;;;;;3.67;1.40;;;14.00;99.90;;;;;;5093998;28;20168;-68
2021/05/09 00:43:30;;;;;;;3.60;1.50;;;14.00;99.90;;;;;;5094170;28;20183;-68
2021/05/09 00:45:56;;;;;;;1.70;1.40;;;14.00;99.90;;;;;;5094048;28;20191;-68
2021/05/09 00:48:21;;;;;;;3.17;1.77;;;14.10;99.90;;;;;;5093882;28;20642;-68
2021/05/09 00:50:47;;;;;;;3.30;1.33;;;13.90;99.90;;;;;;5093790;28;20634;-68
2021/05/09 00:53:15;;;;;;;2.57;1.53;;;13.90;99.90;;;;;;5094115;28;20578;-68
2021/05/09 00:55:42;;;;;;;3.53;1.33;;;14.00;99.90;;;;;;5093640;28;20197;-68
2021/05/09 00:58:10;;;;;;;3.37;1.37;;;13.90;99.90;;;;;;5093992;28;20400;-68
2021/05/09 01:00:36;;;;;;;4.50;1.30;;;13.80;1.00;;;;;;5093919;28;20404;-68
2021/05/09 01:03:05;;;;;;;2.90;1.63;;;13.80;1.00;;;;;;5093774;28;20499;-68
2021/05/09 01:05:31;;;;;;;1.87;1.40;;;13.80;1.00;;;;;;5093419;28;20189;-68
2021/05/09 01:07:57;;;;;;;1.77;1.13;;;13.60;1.00;;;;;;5093526;28;20489;-68
2021/05/09 01:10:22;;;;;;;2.37;1.63;;;13.60;1.00;;;;;;5093497;28;20185;-68
2021/05/09 01:12:48;;;;;;;2.50;1.33;;;13.40;1.00;;;;;;5093874;28;20163;-68
2021/05/09 01:15:14;;;;;;;1.53;1.30;;;13.50;1.00;;;;;;5093340;28;20178;-68
2021/05/09 01:17:39;;;;;;;2.50;1.50;;;13.70;1.00;;;;;;5093382;28;20172;-68
2021/05/09 01:20:14;;;;;;;3.73;1.57;;;13.80;1.00;;;;;;5092421;28;20216;-68
2021/05/09 01:22:41;;;;;;;2.90;1.40;;;13.80;1.00;;;;;;5093325;28;20168;-68
2021/05/09 01:25:08;;;;;;;2.07;1.33;;;13.80;1.00;;;;;;5093417;28;20515;-68
2021/05/09 01:27:34;;;;;;;2.87;1.47;;;13.80;1.00;;;;;;5093099;28;20458;-68
2021/05/09 01:30:00;;;;;;;1.93;1.30;;;13.50;1.00;;;;;;5093153;28;20424;-68
2021/05/09 01:32:26;;;;;;;1.87;1.37;;;13.70;1.00;;;;;;5093412;28;20465;-68
2021/05/09 01:34:51;;;;;;;2.00;1.57;;;13.70;1.00;;;;;;5093122;28;20510;-68
2021/05/09 01:37:17;;;;;;;1.90;1.30;;;13.60;1.00;;;;;;5093142;28;20580;-68
2021/05/09 01:39:42;;;;;;;1.63;1.30;;;13.50;1.00;;;;;;5093364;28;20172;-68
2021/05/09 01:42:08;;;;;;;3.70;1.70;;;13.20;1.00;;;;;;5093065;28;20175;-68
2021/05/09 01:44:34;;;;;;;1.70;1.27;;;13.20;1.00;;;;;;5091684;28;20200;-68
2021/05/09 01:46:59;;;;;;;1.73;1.50;;;13.00;1.00;;;;;;5092956;28;20199;-68
2021/05/09 01:49:25;;;;;;;2.50;1.30;;;13.00;1.00;;;;;;5093305;28;20166;-68
2021/05/09 01:51:50;;;;;;;3.63;1.40;;;12.90;1.00;;;;;;5092947;28;20163;-68
2021/05/09 01:54:16;;;;;;;2.87;1.37;;;12.90;1.00;;;;;;5092873;28;20224;-68
2021/05/09 01:56:42;;;;;;;1.70;1.53;;;12.70;1.00;;;;;;5093205;28;20265;-67
2021/05/09 01:59:08;;;;;;;1.87;1.53;;;12.50;1.00;;;;;;5092935;28;20219;-68
2021/05/09 02:01:35;;;;;;;2.23;1.20;;;12.60;1.00;;;;;;5092815;28;20184;-68
2021/05/09 02:04:00;;;;;;;4.10;1.43;;;12.50;1.00;;;;;;5092619;28;20461;-68
2021/05/09 02:06:26;;;;;;;3.40;1.33;;;12.50;1.00;;;;;;5093011;28;20451;-68
2021/05/09 02:08:51;;;;;;;2.07;1.57;;;12.40;1.00;;;;;;5092686;28;20189;-68
2021/05/09 02:11:19;;;;;;;2.73;1.50;;;12.30;1.00;;;;;;5093281;28;20173;-68
2021/05/09 02:13:44;;;;;;;2.17;1.60;;;12.20;1.00;;;;;;5092939;28;20201;-68
2021/05/09 02:16:10;;;;;;;2.57;1.90;;;12.20;1.00;;;;;;5092801;28;20411;-68
2021/05/09 02:18:36;;;;;;;6.00;1.93;;;12.20;1.00;;;;;;5093287;28;20176;-68
2021/05/09 02:21:01;;;;;;;2.07;1.70;;;12.10;1.00;;;;;;5093278;28;20411;-68
2021/05/09 02:23:27;;;;;;;2.13;1.60;;;12.20;1.00;;;;;;5092796;28;20298;-68
2021/05/09 02:25:52;;;;;;;2.33;1.47;;;12.20;1.00;;;;;;5092972;28;20277;-68
2021/05/09 02:28:18;;;;;;;1.53;1.43;;;12.10;1.00;;;;;;5092665;28;20161;-68
2021/05/09 02:30:44;;;;;;;3.83;1.73;;;12.10;1.00;;;;;;5094241;28;20170;-68
2021/05/09 02:33:13;;;;;;;1.77;1.33;;;12.10;1.00;;;;;;5096519;28;20169;-68
2021/05/09 02:35:39;;;;;;;2.47;1.57;;;12.20;1.00;;;;;;5096398;28;20191;-68
2021/05/09 02:38:05;;;;;;;1.50;1.40;;;12.00;1.00;;;;;;5096388;28;20406;-68
2021/05/09 02:40:31;;;;;;;1.50;1.40;;;11.90;1.00;;;;;;5096462;28;20168;-68
2021/05/09 02:42:56;;;;;;;2.80;2.60;;;11.80;1.00;;;;;;5096294;28;20483;-68
2021/05/09 02:45:22;;;;;;;3.33;1.40;;;12.00;1.00;;;;;;5096211;28;20184;-68
2021/05/09 02:47:47;;;;;;;1.87;1.70;;;12.00;1.00;;;;;;5096094;28;20195;-68
2021/05/09 02:50:13;;;;;;;1.47;1.20;;;12.00;1.00;;;;;;5096155;28;20190;-68
2021/05/09 02:52:39;;;;;;;3.47;1.63;;;11.90;1.00;;;;;;5096118;28;20659;-67
2021/05/09 02:55:05;;;;;;;4.30;1.93;;;11.80;1.00;;;;;;5096044;28;20488;-68
2021/05/09 02:57:30;;;;;;;4.27;1.60;;;11.80;1.00;;;;;;5096136;28;20177;-68
2021/05/09 02:59:56;;;;;;;2.83;1.63;;;11.70;1.00;;;;;;5096002;28;20409;-68
2021/05/09 03:02:21;;;;;;;5.10;2.00;;;11.70;1.00;;;;;;5095922;28;20168;-68
2021/05/09 03:04:47;;;;;;;1.50;1.40;;;11.70;1.00;;;;;;5095921;28;20256;-68
2021/05/09 03:07:13;;;;;;;2.03;1.50;;;11.60;1.00;;;;;;5095542;28;20202;-68
2021/05/09 03:09:38;;;;;;;1.70;1.27;;;11.60;1.00;;;;;;5096096;28;20180;-67
2021/05/09 03:12:04;;;;;;;1.73;1.27;;;11.70;1.00;;;;;;5096020;28;20176;-68
2021/05/09 03:14:30;;;;;;;3.33;1.50;;;11.70;1.00;;;;;;5095711;28;20571;-68
2021/05/09 03:16:56;;;;;;;2.30;1.77;;;11.60;1.00;;;;;;5095914;28;20493;-68
2021/05/09 03:19:21;;;;;;;4.43;1.73;;;11.50;1.00;;;;;;5095603;28;20632;-68
2021/05/09 03:21:47;;;;;;;3.20;1.50;;;11.70;1.00;;;;;;5095496;28;20413;-67
2021/05/09 03:24:13;;;;;;;4.97;2.20;;;11.60;1.00;;;;;;5095688;28;20240;-68
2021/05/09 03:26:39;;;;;;;2.40;1.30;;;11.70;1.00;;;;;;5095681;28;20274;-68
2021/05/09 03:29:06;;;;;;;2.77;1.57;;;11.80;1.00;;;;;;5095714;28;20430;-68
2021/05/09 03:31:32;;;;;;;7.53;1.40;;;11.80;1.00;;;;;;5095643;28;20406;-68
2021/05/09 03:33:58;;;;;;;4.80;1.67;;;11.80;1.00;;;;;;5095274;28;20790;-68
2021/05/09 03:36:23;;;;;;;2.70;1.87;;;11.70;1.00;;;;;;5095483;28;20416;-68
2021/05/09 03:38:50;;;;;;;1.43;1.27;;;11.60;1.00;;;;;;5095110;28;20189;-68
2021/05/09 03:41:16;;;;;;;3.30;1.30;;;11.60;1.00;;;;;;5094689;28;20176;-68
2021/05/09 03:43:42;;;;;;;4.03;1.63;;;11.60;1.00;;;;;;5095058;28;20479;-68
2021/05/09 03:46:07;;;;;;;2.37;1.57;;;11.60;1.00;;;;;;5095724;28;20931;-68
2021/05/09 03:48:33;;;;;;;5.23;1.87;;;11.70;1.00;;;;;;5095172;28;20584;-68
2021/05/09 03:50:59;;;;;;;1.60;1.20;;;11.60;1.00;;;;;;5095091;28;20168;-68
2021/05/09 03:53:27;;;;;;;3.50;1.40;;;11.60;1.00;;;;;;5094759;28;20171;-68
2021/05/09 03:55:53;;;;;;;4.67;1.77;;;11.80;1.00;;;;;;5094809;28;20792;-68
2021/05/09 03:58:18;;;;;;;2.40;1.30;;;12.10;1.00;;;;;;5094758;28;20405;-68
2021/05/09 04:00:44;;;;;;;2.10;1.43;;;11.90;1.00;;;;;;5094720;28;20486;-68
2021/05/09 04:03:27;;;;;;;2.87;1.50;;;12.00;1.00;;;;;;5094910;28;20180;-68
2021/05/09 04:05:53;;;;;;;2.50;1.60;;;12.00;1.00;;;;;;5094596;28;20199;-68
2021/05/09 04:08:20;;;;;;;1.47;1.30;;;12.10;1.00;;;;;;5094384;28;20444;-68
2021/05/09 04:10:46;;;;;;;2.23;1.30;;;12.20;1.00;;;;;;5094462;28;20866;-68
2021/05/09 04:13:12;;;;;;;2.23;1.50;;;12.10;1.00;;;;;;5094683;28;20495;-68
2021/05/09 04:15:37;;;;;;;3.07;1.47;;;12.00;1.00;;;;;;5094384;28;20187;-68
2021/05/09 04:18:04;;;;;;;1.90;1.43;;;12.00;1.00;;;;;;5094622;28;20403;-68
2021/05/09 04:20:29;;;;;;;1.77;1.20;;;12.00;1.00;;;;;;5094329;28;20171;-68
2021/05/09 04:23:07;;;;;;;2.50;1.50;;;12.10;1.00;;;;;;5094298;28;20767;-68
2021/05/09 04:25:32;;;;;;;6.20;2.27;;;12.00;1.00;;;;;;5094194;28;20261;-69
2021/05/09 04:27:58;;;;;;;1.43;1.20;;;11.90;1.00;;;;;;5094400;28;20504;-68
2021/05/09 04:30:24;;;;;;;2.67;1.60;;;11.90;1.00;;;;;;5094692;28;20171;-68
2021/05/09 04:33:00;;;;;;;3.90;2.00;;;11.90;1.00;;;;;;5094324;28;20168;-68
2021/05/09 04:35:26;;;;;;;2.30;1.10;;;11.90;1.00;;;;;;5093994;28;20790;-68
2021/05/09 04:37:51;;;;;;;2.60;1.43;;;12.00;1.00;;;;;;5093998;28;20463;-68
2021/05/09 04:40:17;;;;;;;2.67;1.47;;;12.00;1.00;;;;;;5094226;28;20175;-68
2021/05/09 04:42:43;;;;;;;4.33;1.53;;;12.20;1.00;;;;;;5093895;28;20175;-68
2021/05/09 04:45:09;;;;;;;1.77;1.50;;;12.30;1.00;;;;;;5093874;28;20513;-68
2021/05/09 04:47:35;;;;;;;1.93;1.43;;;12.40;1.00;;;;;;5093682;28;20207;-68
2021/05/09 04:50:02;;;;;;;2.83;1.20;;;12.60;1.00;;;;;;5093745;28;20412;-68
2021/05/09 04:52:28;;;;;;;4.33;1.97;;;12.70;1.00;;;;;;5093718;28;20170;-68
2021/05/09 04:54:53;;;;;;;6.43;1.60;;;12.80;1.00;;;;;;5093317;28;20534;-68
2021/05/09 04:57:19;;;;;;;1.87;1.30;;;12.80;1.00;;;;;;5093932;28;20181;-68
2021/05/09 04:59:44;;;;;;;3.40;1.43;;;12.90;1.00;;;;;;5093626;28;20211;-68
2021/05/09 05:02:10;;;;;;;2.50;1.40;;;12.90;1.00;;;;;;5093742;28;20187;-68
2021/05/09 05:04:35;;;;;;;2.37;1.50;;;13.00;1.00;;;;;;5093479;28;20198;-68
2021/05/09 05:07:01;;;;;;;1.93;1.63;;;13.00;1.00;;;;;;5093328;28;20755;-68
2021/05/09 05:09:26;;;;;;;2.13;1.20;;;13.20;1.00;;;;;;5093492;28;20259;-68
2021/05/09 05:11:53;;;;;;;7.10;1.93;;;13.30;1.00;;;;;;5093410;28;20519;-68
2021/05/09 05:14:18;;;;;;;2.03;1.20;;;13.40;1.00;;;;;;5093319;28;20706;-68
2021/05/09 05:16:44;;;;;;;2.27;1.47;;;13.20;1.00;;;;;;5093402;28;20419;-68
2021/05/09 05:19:10;;;;;;;1.50;1.20;;;13.40;1.00;;;;;;5093627;28;20249;-68
2021/05/09 05:21:35;;;;;;;2.30;1.30;;;13.40;1.00;;;;;;5092855;28;20207;-68
2021/05/09 05:24:01;;;;;;;2.80;1.80;;;13.50;1.00;;;;;;5093284;28;20247;-68
2021/05/09 05:26:26;;;;;;;2.97;1.60;;;13.70;1.00;;;;;;5093338;28;20200;-68
2021/05/09 05:28:52;;;;;;;4.90;2.17;;;13.70;1.00;;;;;;5093441;28;20174;-68
2021/05/09 05:31:17;;;;;;;2.60;1.80;;;13.80;1.00;;;;;;5093439;28;20179;-68
2021/05/09 05:33:43;;;;;;;1.57;1.30;;;13.90;1.00;;;;;;5092918;28;20166;-68
2021/05/09 05:36:09;;;;;;;4.33;1.60;;;13.70;1.00;;;;;;5091838;28;20175;-68
2021/05/09 05:38:34;;;;;;;1.57;1.13;;;13.90;1.00;;;;;;5093373;28;20772;-68
2021/05/09 05:41:00;;;;;;;2.93;1.60;;;13.80;1.00;;;;;;5093373;28;20241;-68
2021/05/09 05:43:30;;;;;;;1.87;1.40;;;14.00;1.00;;;;;;5092945;28;20575;-67
2021/05/09 05:45:58;;;;;;;2.00;1.30;;;14.10;1.00;;;;;;5092965;28;20193;-68
2021/05/09 05:48:25;;;;;;;1.30;1.10;;;14.10;1.00;;;;;;5092982;28;20496;-68
2021/05/09 05:50:51;;;;;;;1.73;1.50;;;14.20;1.00;;;;;;5092979;28;20888;-68
2021/05/09 05:53:19;;;;;;;1.80;1.40;;;14.30;1.00;;;;;;5093190;28;20459;-68
2021/05/09 05:55:46;;;;;;;3.47;1.60;;;14.30;1.00;;;;;;5092807;28;20421;-68
2021/05/09 05:58:11;;;;;;;3.00;1.30;;;14.30;1.00;;;;;;5093121;28;20400;-68
2021/05/09 06:00:37;;;;;;;3.10;1.60;;;14.50;1.00;;;;;;5092873;28;20739;-68
2021/05/09 06:03:02;;;;;;;2.33;1.33;;;14.60;1.00;;;;;;5092954;28;20400;-68
2021/05/09 06:05:28;;;;;;;5.50;2.00;;;14.70;1.00;;;;;;5094260;28;20241;-68
2021/05/09 06:07:54;;;;;;;2.40;1.43;;;14.70;1.00;;;;;;5096899;28;20679;-68
2021/05/09 06:10:19;;;;;;;4.57;1.67;;;14.90;1.00;;;;;;5097198;28;20709;-68
2021/05/09 06:12:45;;;;;;;2.97;1.27;;;15.00;1.00;;;;;;5097431;28;20167;-68
2021/05/09 06:15:11;;;;;;;3.83;1.30;;;15.10;1.00;;;;;;5097065;28;20214;-68
2021/05/09 06:17:36;;;;;;;9.37;1.87;;;15.20;1.00;;;;;;5097040;28;20536;-68
2021/05/09 06:20:04;;;;;;;1.90;1.30;;;15.20;1.00;;;;;;5096733;28;20420;-68
2021/05/09 06:22:30;;;;;;;3.17;1.67;;;15.30;1.00;;;;;;5096939;28;20245;-68
2021/05/09 06:24:55;;;;;;;3.13;1.23;;;15.30;1.00;;;;;;5096654;28;20464;-68
2021/05/09 06:27:21;;;;;;;2.67;1.47;;;15.30;1.00;;;;;;5096769;28;20621;-68
2021/05/09 06:29:46;;;;;;;2.70;1.27;;;15.40;1.00;;;;;;5096558;28;20186;-68
2021/05/09 06:32:12;;;;;;;2.67;1.23;;;15.60;1.00;;;;;;5096448;28;20168;-68
2021/05/09 06:34:37;;;;;;;3.17;1.43;;;15.70;1.00;;;;;;5096396;28;20699;-68
2021/05/09 06:37:03;;;;;;;2.60;1.70;;;15.70;1.00;;;;;;5096239;28;20166;-68
2021/05/09 06:39:29;;;;;;;1.73;1.30;;;15.80;1.00;;;;;;5096191;28;20170;-68
2021/05/09 06:41:57;;;;;;;1.80;1.27;;;15.90;1.00;;;;;;5096818;28;20164;-68
2021/05/09 06:44:27;;;;;;;2.10;1.70;;;16.00;1.00;;;;;;5096347;28;20516;-68
2021/05/09 06:46:52;;;;;;;1.30;0.90;;;16.10;99.90;;;;;;5096132;28;20810;-68
2021/05/09 06:49:18;;;;;;;1.93;1.73;;;16.20;99.90;;;;;;5096412;28;20401;-68
2021/05/09 06:51:43;;;;;;;1.40;1.30;;;16.30;99.90;;;;;;5096624;28;20171;-68
2021/05/09 06:54:09;;;;;;;2.80;1.40;;;16.40;99.90;;;;;;5096231;28;20184;-68
2021/05/09 06:56:36;;;;;;;2.10;1.90;;;16.50;99.90;;;;;;5096362;28;20168;-68
2021/05/09 06:59:03;;;;;;;4.63;1.50;;;16.60;99.90;;;;;;5095052;28;20177;-68
2021/05/09 07:01:28;;;;;;;1.70;1.40;;;16.70;99.90;;;;;;5095911;28;20487;-68
2021/05/09 07:03:54;;;;;;;3.33;1.60;;;16.80;99.90;;;;;;5095774;28;20485;-68
2021/05/09 07:06:20;;;;;;;6.90;1.47;;;16.90;99.90;;;;;;5094357;28;20203;-68
2021/05/09 07:08:45;;;;;;;2.90;1.83;;;17.00;99.90;;;;;;5095693;28;20442;-68
2021/05/09 07:11:11;;;;;;;1.60;1.20;;;17.10;99.90;;;;;;5096054;28;20168;-68
2021/05/09 07:13:36;;;;;;;1.80;1.30;;;17.20;99.90;;;;;;5095608;28;20169;-67
2021/05/09 07:16:02;;;;;;;2.90;1.40;;;17.30;99.90;;;;;;5095347;28;20167;-68
2021/05/09 07:18:29;;;;;;;5.43;1.80;;;17.50;99.90;;;;;;5096412;28;20184;-68
2021/05/09 07:20:56;;;;;;;2.23;1.50;;;17.60;99.90;;;;;;5095461;28;20161;-68
2021/05/09 07:23:23;;;;;;;2.37;1.43;;;17.70;99.90;;;;;;5095832;28;20436;-68
2021/05/09 07:25:50;;;;;;;2.27;1.30;;;17.80;99.90;;;;;;5095215;28;21023;-67
2021/05/09 07:28:17;;;;;;;2.90;1.30;;;17.90;99.90;;;;;;5095806;28;20812;-68
2021/05/09 07:30:44;;;;;;;3.13;1.40;;;17.90;99.90;;;;;;5095431;28;20442;-68
2021/05/09 07:33:12;;;;;;;4.47;1.97;;;17.90;99.90;;;;;;5095245;28;20400;-68
2021/05/09 07:35:39;;;;;;;1.70;1.20;;;18.10;99.90;;;;;;5095503;28;20436;-68
2021/05/09 07:38:05;;;;;;;3.33;1.70;;;18.10;99.90;;;;;;5095243;28;20402;-68
2021/05/09 07:40:31;;;;;;;26.73;3.63;;;18.20;99.90;;;;;;5095463;28;20408;-68
2021/05/09 07:42:57;;;;;;;3.50;1.47;;;18.30;99.90;;;;;;5095095;28;20416;-68
2021/05/09 07:45:23;;;;;;;2.60;1.40;;;18.30;99.90;;;;;;5095078;28;20948;-68
2021/05/09 07:47:50;;;;;;;3.70;1.50;;;18.40;99.90;;;;;;5095294;28;20198;-68
2021/05/09 07:50:17;;;;;;;3.40;1.53;;;18.60;99.90;;;;;;5094950;28;20969;-68
2021/05/09 07:52:44;;;;;;;3.63;1.80;;;18.70;99.90;;;;;;5095012;28;20774;-68
2021/05/09 07:55:10;;;;;;;3.37;1.83;;;18.80;99.90;;;;;;5094833;28;20500;-68
2021/05/09 07:57:36;;;;;;;6.53;1.93;;;18.90;99.90;;;;;;5094846;28;20447;-68
2021/05/09 08:00:07;;;;;;;2.93;2.10;;;19.00;99.90;;;;;;5095356;28;20834;-68
2021/05/09 08:02:32;;;;;;;3.97;1.80;;;19.10;99.90;;;;;;5094673;28;20243;-68
2021/05/09 08:04:58;;;;;;;2.50;1.30;;;19.20;99.90;;;;;;5093389;28;20460;-68
2021/05/09 08:07:23;;;;;;;2.90;1.93;;;19.40;99.90;;;;;;5093330;28;20204;-68
2021/05/09 08:09:49;;;;;;;3.43;1.67;;;19.50;99.90;;;;;;5094823;28;20243;-68
2021/05/09 08:12:14;;;;;;;3.70;1.80;;;19.50;99.90;;;;;;5095217;28;20536;-68
2021/05/09 08:14:40;;;;;;;5.33;1.63;;;19.60;99.90;;;;;;5094258;28;20183;-68
2021/05/09 08:17:05;;;;;;;2.83;1.57;;;19.90;99.90;;;;;;5094372;28;20163;-68
2021/05/09 08:19:31;;;;;;;7.03;2.20;;;20.10;99.90;;;;;;5094473;28;20178;-68
2021/05/09 08:21:57;;;;;;;3.40;1.57;;;20.20;99.90;;;;;;5094267;28;20170;-68
2021/05/09 08:24:22;;;;;;;2.20;1.60;;;20.30;99.90;;;;;;5094398;28;20322;-68
2021/05/09 08:26:49;;;;;;;1.87;1.50;;;20.50;99.90;;;;;;5094021;28;20188;-68
2021/05/09 08:29:14;;;;;;;7.03;1.70;;;20.60;99.90;;;;;;5093850;28;20184;-68
2021/05/09 08:31:40;;;;;;;1.57;1.20;;;20.70;99.90;;;;;;5094004;28;20479;-68
2021/05/09 08:34:05;;;;;;;2.47;1.50;;;20.70;99.90;;;;;;5094245;28;20260;-68
2021/05/09 08:36:31;;;;;;;3.63;1.70;;;20.60;99.90;;;;;;5092596;28;20188;-68
2021/05/09 08:38:56;;;;;;;2.70;1.73;;;20.80;99.90;;;;;;5093937;28;20583;-68
2021/05/09 08:41:24;;;;;;;3.00;1.50;;;21.10;99.90;;;;;;5094303;28;20288;-68
2021/05/09 08:43:49;;;;;;;3.23;1.90;;;21.30;99.90;;;;;;5093973;28;20185;-68
2021/05/09 08:46:19;;;;;;;4.43;1.50;;;21.40;99.90;;;;;;5093764;28;20861;-68
2021/05/09 08:48:47;;;;;;;5.47;1.63;;;21.20;99.90;;;;;;5093736;28;20165;-68
2021/05/09 08:51:12;;;;;;;2.60;1.53;;;21.30;99.90;;;;;;5093657;28;20403;-68
2021/05/09 08:53:39;;;;;;;2.17;1.20;;;21.30;99.90;;;;;;5093599;28;20949;-68
2021/05/09 08:56:04;;;;;;;2.67;1.70;;;21.40;99.90;;;;;;5093620;28;20271;-68
2021/05/09 08:58:30;;;;;;;3.00;1.77;;;21.60;99.90;;;;;;5093521;28;20449;-68
2021/05/09 09:00:55;;;;;;;2.97;2.07;;;21.80;99.90;;;;;;5093674;28;20184;-68
2021/05/09 09:03:21;;;;;;;3.87;2.43;;;22.10;99.90;;;;;;5093577;28;20180;-68
2021/05/09 09:05:51;;;;;;;3.53;1.60;;;22.30;99.90;;;;;;5093601;28;20222;-68
2021/05/09 09:08:16;;;;;;;4.50;1.70;;;22.30;99.90;;;;;;5093817;28;20190;-68
2021/05/09 09:10:50;;;;;;;1.90;1.60;;;22.40;99.90;;;;;;5093983;28;20743;-68
2021/05/09 09:13:31;;;;;;;4.90;2.10;;;22.80;99.90;;;;;;5093393;28;20178;-68
2021/05/09 09:16:03;;;;;;;2.50;1.90;;;22.60;99.90;;;;;;5093371;28;20452;-68
2021/05/09 09:18:42;;;;;;;1.90;1.40;;;22.90;99.90;;;;;;5093065;28;20405;-69
2021/05/09 09:21:41;;;;;;;3.60;1.33;;;23.00;99.90;;;;;;5093073;28;20402;-68
2021/05/09 09:24:10;;;;;;;4.07;1.67;;;23.10;99.90;;;;;;5048668;28;20450;-68
2021/05/09 09:26:41;;;;;;;1.90;1.50;;;23.10;99.90;;;;;;5093080;28;20472;-70
2021/05/09 09:29:22;;;;;;;5.43;1.80;;;22.80;99.90;;;;;;5093380;28;20469;-70
2021/05/09 09:31:54;;;;;;;4.00;1.50;;;22.70;99.90;;;;;;5093500;28;20401;-70
2021/05/09 09:34:19;;;;;;;4.70;1.73;;;22.80;99.90;;;;;;5092796;28;20429;-69
2021/05/09 09:36:45;;;;;;;4.63;1.83;;;23.00;99.90;;;;;;5093017;28;20401;-69
2021/05/09 09:39:11;;;;;;;4.00;1.90;;;23.20;99.90;;;;;;5092688;28;20183;-68
2021/05/09 09:41:44;;;;;;;3.70;1.60;;;23.50;99.90;;;;;;5092662;28;20180;-69
2021/05/09 09:44:12;;;;;;;3.37;1.50;;;23.70;99.90;;;;;;5092980;28;20715;-69
2021/05/09 09:46:52;;;;;;;5.70;1.50;;;24.10;99.90;;;;;;5092823;28;20973;-68
2021/05/09 09:49:37;;;;;;;2.90;1.70;;;24.20;99.90;;;;;;5093059;28;20374;-69
2021/05/09 09:52:05;;;;;;;3.40;1.53;;;24.30;99.90;;;;;;5092983;28;20473;-69
2021/05/09 09:54:32;;;;;;;2.60;1.67;;;24.50;99.90;;;;;;5092931;28;20433;-68
2021/05/09 09:56:59;;;;;;;3.27;1.47;;;24.60;99.90;;;;;;5093106;28;20406;-68
2021/05/09 09:59:25;;;;;;;2.47;1.60;;;24.60;99.90;;;;;;5093026;28;20466;-68
2021/05/09 10:01:51;;;;;;;2.90;1.97;;;24.70;99.90;;;;;;5093136;28;20417;-68
2021/05/09 10:04:16;;;;;;;4.90;2.53;;;24.60;99.90;;;;;;5092877;28;20514;-68
2021/05/09 10:06:42;;;;;;;2.50;2.13;;;24.50;99.90;;;;;;5092672;28;20187;-68
2021/05/09 10:09:09;;;;;;;3.60;2.10;;;24.90;99.90;;;;;;5092649;28;20559;-68
2021/05/09 10:11:35;;;;;;;5.63;2.07;;;25.20;99.90;;;;;;5091305;28;20168;-67
2021/05/09 10:14:01;;;;;;;4.47;1.77;;;25.10;99.90;;;;;;5092742;28;20424;-67
2021/05/09 10:16:34;;;;;;;4.57;1.97;;;25.20;99.90;;;;;;5091210;28;20462;-68
2021/05/09 10:19:01;;;;;;;7.80;4.23;;;25.20;99.90;;;;;;5092926;28;20180;-68
2021/05/09 10:21:32;;;;;;;5.43;4.13;;;25.30;99.90;;;;;;5092563;28;20406;-68
2021/05/09 10:24:14;;;;;;;3.17;1.80;;;25.30;99.90;;;;;;5092903;28;20795;-68
2021/05/09 10:27:04;;;;;;;4.50;1.83;;;25.40;99.90;;;;;;5092769;28;20448;-69
2021/05/09 10:29:33;;;;;;;2.73;1.63;;;25.70;99.90;;;;;;5093167;28;20458;-68
2021/05/09 10:31:59;;;;;;;4.17;2.10;;;25.70;99.90;;;;;;5092563;28;20405;-68
2021/05/09 10:34:56;;;;;;;6.10;2.00;;;26.00;99.90;;;;;;5092572;28;20471;-68
2021/05/09 10:37:45;;;;;;;3.90;1.50;;;26.10;99.90;;;;;;5092460;28;20535;-69
2021/05/09 10:40:20;;;;;;;5.90;1.73;;;26.10;99.90;;;;;;5092579;28;20413;-69
2021/05/09 10:42:47;;;;;;;3.07;2.03;;;26.30;99.90;;;;;;5092456;28;20401;-68
2021/05/09 10:45:29;;;;;;;3.33;2.00;;;26.50;99.90;;;;;;5092340;28;20551;-69
2021/05/09 10:48:25;;;;;;;2.70;1.70;;;26.70;99.90;;;;;;5092168;28;20440;-69
2021/05/09 10:51:00;;;;;;;2.90;1.80;;;26.70;99.90;;;;;;5092482;28;20485;-69
2021/05/09 10:53:37;;;;;;;6.70;2.10;;;26.60;99.90;;;;;;5095805;28;20395;-68
2021/05/09 10:56:15;;;;;;;4.67;1.77;;;26.50;99.90;;;;;;5096183;28;20450;-69
2021/05/09 10:58:47;;;;;;;6.43;1.90;;;26.50;99.90;;;;;;5096192;28;20402;-69
2021/05/09 11:01:18;;;;;;;2.80;2.00;;;26.50;99.90;;;;;;5095980;28;20478;-69
2021/05/09 11:03:43;;;;;;;4.90;1.93;;;26.40;99.90;;;;;;5096401;28;20397;-69
2021/05/09 11:06:11;;;;;;;4.40;2.00;;;26.50;99.90;;;;;;5094192;28;20980;-69
2021/05/09 11:08:42;;;;;;;2.23;2.03;;;26.40;99.90;;;;;;5095826;28;20187;-69
2021/05/09 11:11:29;;;;;;;2.23;1.47;;;26.40;99.90;;;;;;5095695;28;20850;-69
2021/05/09 11:14:00;;;;;;;2.90;1.93;;;26.30;99.90;;;;;;5095667;28;20413;-69
2021/05/09 11:16:29;;;;;;;4.00;1.90;;;26.30;99.90;;;;;;5095938;28;20451;-69
2021/05/09 11:19:08;;;;;;;2.97;2.00;;;26.40;99.90;;;;;;5095540;28;20906;-69
2021/05/09 11:21:35;;;;;;;4.60;1.90;;;26.20;99.90;;;;;;5095830;28;20393;-68
2021/05/09 11:24:07;;;;;;;4.03;1.70;;;26.20;99.90;;;;;;5095355;28;20425;-68
2021/05/09 11:26:38;;;;;;;3.87;2.93;;;26.30;99.90;;;;;;5095256;28;20544;-68
2021/05/09 11:29:15;;;;;;;3.67;1.80;;;26.30;99.90;;;;;;5095703;28;20884;-69
2021/05/09 11:31:51;;;;;;;2.90;2.00;;;26.30;99.90;;;;;;5095299;28;20425;-68
2021/05/09 11:34:19;;;;;;;3.70;2.10;;;26.10;99.90;;;;;;5094007;28;20434;-68
2021/05/09 11:36:47;;;;;;;2.17;1.80;;;26.10;99.90;;;;;;5095323;28;20819;-68
2021/05/09 11:39:17;;;;;;;5.57;2.37;;;26.40;99.90;;;;;;5095042;28;20405;-68
2021/05/09 11:42:12;;;;;;;7.10;1.77;;;26.60;99.90;;;;;;5095718;28;20898;-68
2021/05/09 11:44:46;;;;;;;5.30;2.53;;;26.90;99.90;;;;;;5095138;28;20428;-68
2021/05/09 11:47:20;;;;;;;2.37;1.90;;;27.30;99.90;;;;;;5094994;28;20467;-69
2021/05/09 11:49:46;;;;;;;3.67;2.33;;;27.40;99.90;;;;;;5094976;28;20392;-67
2021/05/09 11:52:18;;;;;;;5.90;2.10;;;27.70;99.90;;;;;;5094806;28;20402;-69
2021/05/09 11:54:46;;;;;;;3.70;2.50;;;27.70;99.90;;;;;;5095490;28;20858;-68
2021/05/09 11:57:11;;;;;;;6.10;3.37;;;28.20;99.90;;;;;;5094840;28;20496;-68
2021/05/09 11:59:42;;;;;;;7.40;3.13;;;28.00;99.90;;;;;;5094806;28;20486;-69
2021/05/09 12:02:11;;;;;;;2.80;2.13;;;28.00;99.90;;;;;;5094560;28;20364;-68
2021/05/09 12:04:37;;;;;;;2.00;1.80;;;28.10;99.90;;;;;;5094172;28;20470;-68
2021/05/09 12:07:04;;;;;;;3.47;1.47;;;28.20;99.90;;;;;;5094368;28;20468;-68
2021/05/09 12:09:31;;;;;;;4.30;2.10;;;28.40;99.90;;;;;;5094573;28;20787;-68
2021/05/09 12:11:58;;;;;;;2.83;1.70;;;28.30;99.90;;;;;;5094500;28;20440;-68
2021/05/09 12:14:25;;;;;;;3.23;1.83;;;28.50;99.90;;;;;;5094518;28;20424;-68
2021/05/09 12:16:51;;;;;;;12.77;2.10;;;28.50;99.90;;;;;;5094275;28;20401;-68
2021/05/09 12:19:16;;;;;;;2.73;2.10;;;28.50;99.90;;;;;;5094359;28;20402;-68
2021/05/09 12:22:03;;;;;;;3.03;2.27;;;28.90;99.90;;;;;;5094292;28;20535;-68
2021/05/09 12:24:29;;;;;;;11.00;6.37;;;29.00;99.90;;;;;;5094199;28;20236;-68
2021/05/09 12:27:05;;;;;;;4.70;1.90;;;28.90;99.90;;;;;;5094176;28;20467;-68
2021/05/09 12:29:40;;;;;;;2.67;1.83;;;29.10;99.90;;;;;;5094169;28;20424;-68
2021/05/09 12:32:29;;;;;;;3.17;1.80;;;29.20;99.90;;;;;;5094431;28;20401;-68
2021/05/09 12:35:15;;;;;;;4.73;1.97;;;29.20;99.90;;;;;;5094403;28;20414;-68
2021/05/09 12:37:49;;;;;;;4.10;3.23;;;29.20;99.90;;;;;;5094499;28;20396;-69
2021/05/09 12:40:23;;;;;;;3.40;2.10;;;29.10;99.90;;;;;;5094649;28;20508;-69
2021/05/09 12:42:59;;;;;;;2.40;1.60;;;29.40;99.90;;;;;;5093901;28;20882;-69
2021/05/09 12:45:38;;;;;;;6.30;2.03;;;29.60;99.90;;;;;;5094294;28;20456;-68
2021/05/09 12:48:06;;;;;;;7.50;2.70;;;29.40;99.90;;;;;;5093847;28;20437;-68
2021/05/09 12:50:56;;;;;;;11.40;3.37;;;29.40;99.90;;;;;;5093766;28;20496;-69
2021/05/09 12:53:43;;;;;;;9.20;3.40;;;29.40;99.90;;;;;;5094206;28;20409;-68
2021/05/09 12:56:20;;;;;;;8.47;2.50;;;29.70;99.90;;;;;;5093731;28;21048;-68